Sonic Adventure (DX): Overall Rankings

Records: Times | Rings | Scores | Races | Bosses | Freestyle
Leaders: Times | Rings | Scores | Races | Bosses | Freestyle | Overall
Rank Player Percent Points Date Grade
1 Sonicspeedruner 98.3% 287 02-16-17 S
2 Gamepro011 98.2% 304 02-16-17 A
3 DarkPolarNight 96.2% 634 02-16-17 A
4 Jawzun 93.5% 1094 02-16-17 A
5 Dashjump 92.1% 1328 02-16-17 A
6 DarkspinesSonic 90.2% 1645 02-16-17 A
7 Avento128bits 89.9% 1695 02-16-17 A
8 ike6252 89.8% 1708 02-16-17 A
9 F-Man 88.0% 2025 02-16-17 A
10 Coolfansonic 86.6% 2256 02-16-17 A
11 HyperSonic7701 84.7% 2578 02-16-17 A
12 yoshifan 82.9% 2883 02-16-17 A
13 TheRealShadnic 82.8% 2895 02-16-17 A
14 frankoredstrato 82.7% 2923 02-16-17 A
15 francisco 81.8% 3074 02-16-17 A
16 Marth 81.4% 3133 02-16-17 A
17 InferSaime 80.1% 3350 02-16-17 A
18 PfoSonic 79.7% 3421 02-16-17 B
19 Paragod 79.4% 3481 02-16-17 B
20 THC98 78.7% 3596 02-16-17 B
21 Stefan 76.1% 4037 02-16-17 B
22 RPGnutter 73.9% 4399 02-16-17 B
23 bertin 73.8% 4422 02-16-17 B
24 sonicam 71.7% 4772 02-16-17 B
25 drminus 70.5% 4982 02-16-17 B
26 xXMegaManXx 70.3% 5003 02-16-17 B
27 Combo 65.8% 5773 02-16-17 B
28 SkyLights 64.6% 5978 02-16-17 B
29 Diamond 62.5% 6333 02-16-17 B
30 Auriman1 60.6% 6656 02-16-17 B
31 OmegaDJ 60.5% 6669 02-16-17 B
32 GerbilSoft 60.5% 6672 02-16-17 B
33 magnum12 59.6% 6812 02-16-17 C
34 Thorn 57.5% 7167 02-16-17 C
35 P1 Pause 57.3% 7203 02-16-17 C
36 mike89 56.2% 7403 02-16-17 C
37 Groudon199 54.3% 7723 02-16-17 C
38 Dave Cramer 54.2% 7732 02-16-17 C
39 chainchumper 54.1% 7747 02-16-17 C
40 Parax 53.4% 7866 02-16-17 C
41 Shadow Jacky 53.2% 7904 02-16-17 C
42 Psymar 48.0% 8783 02-16-17 C
43 Arch 47.3% 8905 02-16-17 C
44 Chao_Fan 46.4% 9050 02-16-17 C
45 mauserman 45.4% 9221 02-16-17 C
46 Quartz 45.3% 9244 02-16-17 C
47 teamblackarms 44.5% 9371 02-16-17 C
48 Psyknux 43.4% 9550 02-16-17 C
49 James_Bertolli 43.4% 9565 02-16-17 C
50 NintenDan 43.0% 9628 02-16-17 C
51 Webber3000 42.6% 9698 02-16-17 C
52 Turbos 42.3% 9736 02-16-17 C
53 Ring Rush 42.0% 9797 02-16-17 C
54 Cream147 42.0% 9803 02-16-17 C
55 videogamemaster777 41.8% 9822 02-16-17 C
56 Siavash Tazari 41.6% 9855 02-16-17 C
57 Fr3nZy 41.5% 9871 02-16-17 C
58 buddychaos0415 41.2% 9934 02-16-17 C
59 SadisticMystic 40.3% 10083 02-16-17 C
60 eggFL 39.7% 10178 02-16-17 D
61 Redd 38.7% 10350 02-16-17 D
62 SB737 38.2% 10439 02-16-17 D
63 supersonic465 37.4% 10580 02-16-17 D
64 supersonicfan 37.1% 10628 02-16-17 D
65 chaos shadow 36.6% 10710 02-16-17 D
66 FuzZerd 35.8% 10841 02-16-17 D
67 Aitamen 35.3% 10926 02-16-17 D
68 elecmouse101 35.0% 10978 02-16-17 D
69 danieldude 34.9% 11003 02-16-17 D
70 metanightmare22 33.7% 11190 02-16-17 D
71 Austinf 33.7% 11191 02-16-17 D
72 Cyan Ryan 33.6% 11210 02-16-17 D
73 dabestgamer 33.4% 11255 02-16-17 D
74 MiStEr_ShAoLiN 33.2% 11288 02-16-17 D
75 Andrea Ritsu 32.3% 11430 02-16-17 D
76 itsPersonnal 32.0% 11487 02-16-17 D
77 Cybrax 31.1% 11636 02-16-17 D
78 SilvertheAlmighty 31.1% 11639 02-16-17 D
79 VMU Player Banned 29.1% 11981 02-16-17 D
80 Staf 28.9% 12017 02-16-17 D
81 ethmar 28.8% 12034 02-16-17 D
82 Nimrod 28.7% 12035 02-16-17 D
83 Omega Rafael Santos 28.4% 12087 02-16-17 D
83 The T 28.4% 12087 02-16-17 D
85 EngiNerd 28.2% 12123 02-16-17 D
86 lordmetalsonic 27.7% 12220 02-16-17 D
87 Hipertails12 27.1% 12312 02-16-17 D
88 welldooder64 27.0% 12322 02-16-17 D
89 GreatStar 26.8% 12370 02-16-17 D
90 The Great Lord Mick 26.7% 12379 02-16-17 D
91 Sondow 26.7% 12383 02-16-17 D
92 LinksDarkArrows 26.5% 12417 02-16-17 D
93 Mastakirby 26.4% 12425 02-16-17 D
94 Skylace 25.4% 12595 02-16-17 D
95 a_moustache 24.4% 12775 02-16-17 D
96 Rolken 24.0% 12835 02-16-17 D
97 Kogen Player Banned 22.3% 13124 02-16-17 D
98 Xia 22.2% 13138 02-16-17 D
99 Spinballwizard 22.2% 13139 02-16-17 D
100 Twilisailor 21.8% 13217 02-16-17 D
101 f0rever_zer0 21.7% 13221 02-16-17 D
102 Cutiefox 21.5% 13253 02-16-17 D
103 Don 21.5% 13262 02-16-17 D
104 Game_Complete 21.4% 13277 02-16-17 D
105 Miles9999 21.4% 13280 02-16-17 D
106 andres430 20.9% 13359 02-16-17 D
107 Cruizer 20.7% 13401 02-16-17 D
108 iSonicKid2K 20.6% 13415 02-16-17 D
109 SADXTryHard 20.2% 13476 02-16-17 D
110 GarnetPrincess 19.8% 13547 02-16-17 E
111 AxlThunder 19.1% 13664 02-16-17 E
112 knuckles_sonic8 18.8% 13710 02-16-17 E
113 KinkyCadence 18.3% 13798 02-16-17 E
114 The Knuckles Chao 18.3% 13799 02-16-17 E
115 Team_Yoshi 18.0% 13848 02-16-17 E
116 Termon 17.9% 13865 02-16-17 E
117 LittleBigness 17.9% 13870 02-16-17 E
118 SonicWinDX 17.7% 13897 02-16-17 E
119 FoxBoy 17.6% 13920 02-16-17 E
120 Drakodan 16.9% 14039 02-16-17 E
121 Sonic Singularity 15.9% 14207 02-16-17 E
122 Pokemonmaster888 15.7% 14236 02-16-17 E
123 BigAL49 14.8% 14396 02-16-17 E
124 MPit08 14.6% 14423 02-16-17 E
125 SilverSonic 14.6% 14428 02-16-17 E
126 WeegeeZV 14.3% 14475 02-16-17 E
127 koinu93 14.1% 14504 02-16-17 E
128 Mo Player Banned 14.1% 14510 02-16-17 E
129 HyperSonic64 13.8% 14566 02-16-17 E
130 Cod4Scopes 13.7% 14573 02-16-17 E
131 booo95 13.6% 14595 02-16-17 E
132 Jerzia 13.4% 14622 02-16-17 E
133 paulie9990 13.3% 14643 02-16-17 E
134 Chawkk 13.3% 14644 02-16-17 E
135 Hunters13 13.0% 14688 02-16-17 E
136 SuperSonic101 13.0% 14692 02-16-17 E
137 Maxinfamily 12.9% 14707 02-16-17 E
138 Kanimayo_Jp 12.7% 14753 02-16-17 E
139 LilZero 12.6% 14760 02-16-17 E
140 BrokenArthritis 12.5% 14778 02-16-17 E
141 PsyBorg 12.4% 14794 02-16-17 E
142 Flying Fox 12.4% 14798 02-16-17 E
143 Therio 12.1% 14851 02-16-17 E
144 sonicspeed 12.0% 14866 02-16-17 E
145 douglas 11.8% 14900 02-16-17 E
146 Matt_TY 11.4% 14965 02-16-17 E
147 thewaytodawnnn 11.4% 14971 02-16-17 E
148 Cooljay 10.9% 15050 02-16-17 E
149 SuperBlitzCraig 10.8% 15073 02-16-17 E
150 joecoolgames 10.7% 15082 02-16-17 E
151 SeaWolf 10.7% 15087 02-16-17 E
152 videogamer1014 10.5% 15123 02-16-17 E
153 N 10.3% 15145 02-16-17 E
154 AC-Tygo 10.2% 15164 02-16-17 E
155 welshmoose05 10.2% 15176 02-16-17 E
156 OddCook 10.0% 15210 02-16-17 E
157 TFEC Headshot 9.9% 15226 02-16-17 E
158 crazy1993 9.8% 15229 02-16-17 E
159 Mcshuggets 9.7% 15257 02-16-17 E
160 niscool 9.4% 15303 02-16-17 E
161 imazor017 9.3% 15316 02-16-17 E
162 Mariobutch 9.2% 15335 02-16-17 E
163 nuckrieg 9.2% 15341 02-16-17 E
164 SonicAD 9.2% 15347 02-16-17 E
165 SirTobbii 9.1% 15361 02-16-17 E
166 Shadowthegreat 9.0% 15366 02-16-17 E
167 superjupi 9.0% 15372 02-16-17 E
168 Powerjohn25 8.7% 15418 02-16-17 E
169 sonamyfan666 8.7% 15421 02-16-17 E
170 iarebored 8.6% 15434 02-16-17 E
171 SaviourDC 8.6% 15447 02-16-17 E
172 SonicKnuckles 8.5% 15450 02-16-17 E
173 Werey 8.3% 15498 02-16-17 E
174 adf 8.2% 15507 02-16-17 E
175 Megaman EXE565 8.0% 15544 02-16-17 E
176 ArcticDragon 7.6% 15612 02-16-17 E
176 Platformer 7.6% 15612 02-16-17 E
178 timpkmn89 7.4% 15636 02-16-17 E
179 FocusSight64 7.3% 15652 02-16-17 E
180 Swift Hobo 7.3% 15657 02-16-17 E
181 wheatrich 7.3% 15668 02-16-17 E
182 Rickyman48 7.1% 15686 02-16-17 E
183 KitsuneYamaro 7.0% 15709 02-16-17 E
184 Triseena 6.8% 15743 02-16-17 E
185 SonataSpinDash 6.7% 15768 02-16-17 E
186 CyberShadow 6.5% 15789 02-16-17 E
187 dShadow 6.5% 15793 02-16-17 E
188 Starlight Sable 6.5% 15796 02-16-17 E
189 slade23 6.5% 15801 02-16-17 E
190 Destroyer121121 6.4% 15807 02-16-17 E
191 IsisDazs 6.3% 15822 02-16-17 E
192 BlankTH 6.2% 15854 02-16-17 E
193 Monkeh 6.0% 15882 02-16-17 E
194 Badlex727 6.0% 15887 02-16-17 E
195 SonicU260 5.8% 15911 02-16-17 E
196 Richied 5.8% 15912 02-16-17 E
197 DaDude 5.7% 15926 02-16-17 E
198 Vicklaw 5.7% 15937 02-16-17 E
199 Zip 5.6% 15949 02-16-17 E
200 sonicd5 5.6% 15953 02-16-17 E
201 ALundstrom10 5.2% 16014 02-16-17 E
202 VeritasDL 5.2% 16018 02-16-17 E
203 tal39h 5.2% 16021 02-16-17 E
204 Kirbymon30 5.1% 16031 02-16-17 E
205 soniccoloursunleashed 4.9% 16058 02-16-17 E
206 Drflash55 4.9% 16061 02-16-17 E
207 Bass 4.8% 16081 02-16-17 E
208 neaolas 4.7% 16094 02-16-17 E
209 Yish 4.7% 16101 02-16-17 E
210 zapp 4.6% 16108 02-16-17 E
211 UninspiredUsername 4.6% 16116 02-16-17 E
212 superiorsonic 4.6% 16118 02-16-17 E
213 Sonicsuperstar1 4.6% 16124 02-16-17 E
214 gamefreak1292 4.5% 16135 02-16-17 E
215 Chaos_Overlord 4.2% 16183 02-16-17 E
216 TakaRikka 4.1% 16207 02-16-17 E
217 Valfore 4.0% 16216 02-16-17 E
218 ShinigamiMachine 3.8% 16246 02-16-17 E
219 Regano1000 3.8% 16257 02-16-17 E
220 MK 3.6% 16279 02-16-17 E
221 Ace747 3.6% 16289 02-16-17 E
222 Illidan 3.2% 16354 02-16-17 E
223 HHNNBBHHN 3.2% 16355 02-16-17 E
224 Venick409 3.1% 16365 02-16-17 E
225 Brian_pso 3.1% 16367 02-16-17 E
226 Sithwarrior26 3.1% 16368 02-16-17 E
227 nman36 3.1% 16369 02-16-17 E
228 Egor305 3.0% 16392 02-16-17 E
229 ingx24 2.9% 16395 02-16-17 E
230 TheChaosEmeraIds 2.9% 16398 02-16-17 E
231 SkyBon 2.9% 16401 02-16-17 E
232 Nickson98 2.9% 16405 02-16-17 E
233 dekki1234 2.8% 16412 02-16-17 E
234 Fozer 2.8% 16415 02-16-17 E
235 FSSRandomvids 2.8% 16425 02-16-17 E
236 Colomb_30 2.8% 16426 02-16-17 E
237 Aiko 2.7% 16440 02-16-17 E
238 sonic29887 2.7% 16443 02-16-17 E
239 TheUltraBlur 2.6% 16448 02-16-17 E
240 1stKirbyever 2.6% 16454 02-16-17 E
241 TimTH 2.6% 16462 02-16-17 E
242 Th4tN1nj4Turtl3 2.4% 16490 02-16-17 E
243 Cort_pso 2.3% 16501 02-16-17 E
244 ieatatsonic 2.3% 16508 02-16-17 E
244 Mariosonic15 2.3% 16508 02-16-17 E
246 Doom-9 2.3% 16509 02-16-17 E
247 HermitHelmet 2.1% 16532 02-16-17 E
247 MStitomix 2.1% 16532 02-16-17 E
249 Artie 2.0% 16548 02-16-17 E
249 Got4n 2.0% 16548 02-16-17 E
251 SuperSonic71087 2.0% 16556 02-16-17 E
252 Jose_15 2.0% 16561 02-16-17 E
253 Questionguy555 1.9% 16565 02-16-17 E
254 SuperSonicfan9595 1.9% 16578 02-16-17 E
255 djmat 1.9% 16579 02-16-17 E
256 sonicandamy Player Banned 1.7% 16600 02-16-17 E
257 LancexExWx 1.7% 16609 02-16-17 E
258 Paixii 1.7% 16610 02-16-17 E
259 son1cgu1tar 1.7% 16613 02-16-17 E
260 Heroes_Hater 1.7% 16614 02-16-17 E
261 BallzeH 1.6% 16625 02-16-17 E
262 Mankster101 1.6% 16631 02-16-17 E
263 BecauseWarAnvil 1.5% 16634 02-16-17 E
264 Jamixesa 1.5% 16637 02-16-17 E
265 Crydio 1.5% 16646 02-16-17 E
266 Shanekilz 1.4% 16650 02-16-17 E
267 SpiritDragon1995 1.4% 16651 02-16-17 E
268 ReuelBrony 1.4% 16659 02-16-17 E
269 MarewBFN 1.4% 16664 02-16-17 E
270 stanski 1.3% 16667 02-16-17 E
271 Sonique Hedgehog 1.3% 16672 02-16-17 E
272 p0ker 1.3% 16679 02-16-17 E
273 Blue Infamy 1.2% 16684 02-16-17 E
274 ErrortheCucco 1.2% 16695 02-16-17 E
275 Rikum22 1.2% 16698 02-16-17 E
276 Arthas 1.1% 16700 02-16-17 E
277 sonic1001 1.1% 16706 02-16-17 E
278 AJSIV 1.1% 16711 02-16-17 E
279 syco1098 1.1% 16713 02-16-17 E
280 WingedInsignia 1.1% 16714 02-16-17 E
281 Sonic the Hedgehod16 1.1% 16715 02-16-17 E
282 Calfd 1.0% 16724 02-16-17 E
282 sonicfan9 1.0% 16724 02-16-17 E
284 BlackArmsShadow 0.9% 16735 02-16-17 E
285 themachoman202 0.9% 16737 02-16-17 E
286 shadowblast63 Player Banned 0.9% 16744 02-16-17 E
287 Greham Adelphis 0.9% 16745 02-16-17 E
288 Fivavoa 0.9% 16747 02-16-17 E
288 Mr. Jones 0.9% 16747 02-16-17 E
290 darkstarblaze 0.9% 16748 02-16-17 E
291 arcfx1985 0.8% 16750 02-16-17 E
291 MastaToken 0.8% 16750 02-16-17 E
293 Ben1502 0.8% 16752 02-16-17 E
293 ptorflaxendrosis 0.8% 16752 02-16-17 E
295 TommyeAsY 0.8% 16753 02-16-17 E
296 FlandreScarlet9999vr 0.8% 16758 02-16-17 E
296 Gvozdevik 0.8% 16758 02-16-17 E
298 Knuckles 0.8% 16760 02-16-17 E
298 Zeldocto 0.8% 16760 02-16-17 E
300 KaM Mark MaK 0.8% 16764 02-16-17 E
301 BeeAwwb 0.8% 16765 02-16-17 E
302 ShadouZaHejjihoggu 0.7% 16772 02-16-17 E
303 Sonic The Star 0.7% 16779 02-16-17 E
304 darkersupershadic 0.7% 16780 02-16-17 E
305 Sonic62 0.7% 16781 02-16-17 E
306 Sarger001 0.6% 16784 02-16-17 E
307 dragondragon18 0.6% 16786 02-16-17 E
307 Grady219 0.6% 16786 02-16-17 E
307 SonicK100 0.6% 16786 02-16-17 E
310 Sogeking 0.6% 16787 02-16-17 E
311 Shadygamerfreak 0.6% 16788 02-16-17 E
312 Jawaah 0.6% 16793 02-16-17 E
313 Antek 0.6% 16796 02-16-17 E
314 Klaus 0.6% 16798 02-16-17 E
315 SilverK 0.6% 16799 02-16-17 E
316 BioShadow 0.5% 16802 02-16-17 E
317 SpinDashMaster 0.5% 16806 02-16-17 E
318 Videogamer123 0.5% 16810 02-16-17 E
319 oTaiIilLsS 0.4% 16823 02-16-17 E
320 isaihtb11 0.4% 16824 02-16-17 E
321 OhNoes! 0.4% 16826 02-16-17 E
322 zaktu40 0.4% 16827 02-16-17 E
323 gaara1234 0.4% 16830 02-16-17 E
323 Mad Andy 0.4% 16830 02-16-17 E
323 S-MS32X-S 0.4% 16830 02-16-17 E
326 gamed00d 0.4% 16834 02-16-17 E
327 Mister_Slick 0.3% 16841 02-16-17 E
328 Sonic06Fan 0.3% 16844 02-16-17 E
329 Rush Hero 0.3% 16846 02-16-17 E
330 SonicMega167 0.3% 16851 02-16-17 E
331 Iwannabelink 0.2% 16852 02-16-17 E
332 sonknuck23 0.2% 16856 02-16-17 E
333 DanielTheFalcon 0.2% 16864 02-16-17 E
333 gamer1245 0.2% 16864 02-16-17 E
335 Burningskull123 0.1% 16870 02-16-17 E
336 Sonicontherun 0.1% 16881 02-16-17 E
337 Lil_Dude 0.1% 16885 02-16-17 E
338 antiwwe 0.0% 16887 02-16-17 E
339 Genuine Hedgehog 0.0% 16891 02-16-17 E
340 Cbwade15 0.0% 16892 02-16-17 E
341 Tyrouble 0.0% 16895 02-16-17 E
342 MegabombBlade 0.0% 16902 02-16-17 E
342 neji_hyuuga 0.0% 16902 02-16-17 E
342 Over 0.0% 16902 02-16-17 E
342 sdj6707 Player Banned 0.0% 16902 02-16-17 E
342 Tran Sonic Fan Player Banned 0.0% 16902 02-16-17 E

This page is using the New Data Table System. [FUTURE]


-- Back to Normal Skin --
Game ID: 3 | Category ID: 10
Hits: 68,619 | Hits This Month: 138 | DB Calls: 16 | Mem Usage: 5.46 MB | Time: 0.22s | Printable

The Sonic Center v3.9 Hax in Progress
Copyright 2003-2011 by The Sonic Center Team.